Time;durP1;ratioP1;P1;durP2;ratioP2;P2;SDS_P1;SDS_P2;PMS_P1;PMS_P2;Temp;Humidity;BMP_temperature;BMP_pressure;BME280_temperature;BME280_humidity;BME280_pressure;Samples;Min_cycle;Max_cycle;Signal;HPM_P1;HPM_P2
2022/07/19 00:00:46;;;;;;;;;;;21.30;61.30;;;;;;5020563;28;19992;-82
2022/07/19 00:03:13;;;;;;;;;;;21.30;60.10;;;;;;5022022;28;20012;-82
2022/07/19 00:05:38;;;;;;;;;;;21.40;59.20;;;;;;5019880;28;19917;-82
2022/07/19 00:08:04;;;;;;;;;;;21.40;59.80;;;;;;5020250;28;19917;-81
2022/07/19 00:10:29;;;;;;;;;;;21.40;59.50;;;;;;5020990;28;20349;-81
2022/07/19 00:12:55;;;;;;;;;;;21.30;59.80;;;;;;5020726;28;19918;-80
2022/07/19 00:15:20;;;;;;;;;;;21.40;59.60;;;;;;5021641;28;19909;-81
2022/07/19 00:17:47;;;;;;;;;;;21.40;59.60;;;;;;5020463;28;19909;-81
2022/07/19 00:20:14;;;;;;;;;;;21.40;59.60;;;;;;5018588;28;19913;-82
2022/07/19 00:22:40;;;;;;;;;;;21.30;60.70;;;;;;5019928;28;19973;-81
2022/07/19 00:25:06;;;;;;;;;;;21.30;59.80;;;;;;5019529;28;19957;-81
2022/07/19 00:27:31;;;;;;;;;;;21.30;60.50;;;;;;5020601;28;20003;-81
2022/07/19 00:29:57;;;;;;;;;;;21.20;60.60;;;;;;5022578;28;19910;-81
2022/07/19 00:32:23;;;;;;;;;;;21.30;60.30;;;;;;5020907;28;19959;-81
2022/07/19 00:34:48;;;;;;;;;;;21.20;60.50;;;;;;5031672;28;19963;-81
2022/07/19 00:37:13;;;;;;;;;;;21.10;60.70;;;;;;5029312;28;19932;-81
2022/07/19 00:39:39;;;;;;;;;;;21.10;60.90;;;;;;5017356;28;19922;-81
2022/07/19 00:42:04;;;;;;;;;;;21.10;61.20;;;;;;5022947;28;19964;-82
2022/07/19 00:44:30;;;;;;;;;;;21.10;61.30;;;;;;5019907;28;19978;-81
2022/07/19 00:46:55;;;;;;;;;;;21.00;61.70;;;;;;5019730;28;19909;-81
2022/07/19 00:49:21;;;;;;;;;;;21.10;62.00;;;;;;5018294;28;19920;-81
2022/07/19 00:51:47;;;;;;;;;;;21.00;62.10;;;;;;5019517;28;19914;-81
2022/07/19 00:54:13;;;;;;;;;;;21.00;61.80;;;;;;5025233;28;19976;-81
2022/07/19 00:56:40;;;;;;;;;;;21.00;62.10;;;;;;5027408;28;20517;-82
2022/07/19 00:59:07;;;;;;;;;;;20.80;62.60;;;;;;5027398;28;19917;-81
2022/07/19 01:01:33;;;;;;;;;;;20.70;62.90;;;;;;5020815;28;20298;-82
2022/07/19 01:03:58;;;;;;;;;;;20.60;63.10;;;;;;5019835;28;19917;-81
2022/07/19 01:06:24;;;;;;;;;;;20.50;63.60;;;;;;5019502;28;19917;-81
2022/07/19 01:08:50;;;;;;;;;;;20.50;63.80;;;;;;5019502;28;19909;-81
2022/07/19 01:11:15;;;;;;;;;;;20.50;63.70;;;;;;5019627;28;20394;-81
2022/07/19 01:13:41;;;;;;;;;;;20.40;63.80;;;;;;5010888;28;19917;-82
2022/07/19 01:16:07;;;;;;;;;;;20.50;63.70;;;;;;5018725;28;20382;-80
2022/07/19 01:18:32;;;;;;;;;;;20.50;63.70;;;;;;5018048;28;19963;-82
2022/07/19 01:20:58;;;;;;;;;;;20.50;63.40;;;;;;5017188;28;19965;-81
2022/07/19 01:23:24;;;;;;;;;;;20.50;63.60;;;;;;5027733;28;19913;-81
2022/07/19 01:25:49;;;;;;;;;;;20.50;63.90;;;;;;5038532;28;20305;-81
2022/07/19 01:28:15;;;;;;;;;;;20.30;64.20;;;;;;5039032;28;19909;-81
2022/07/19 01:30:41;;;;;;;;;;;20.20;64.80;;;;;;5039861;28;19917;-80
2022/07/19 01:33:06;;;;;;;;;;;20.20;64.80;;;;;;5034361;28;19971;-80
2022/07/19 01:35:32;;;;;;;;;;;20.10;65.00;;;;;;5015721;28;19913;-81
2022/07/19 01:37:57;;;;;;;;;;;20.10;64.80;;;;;;5016201;28;19909;-81
2022/07/19 01:40:23;;;;;;;;;;;20.20;64.60;;;;;;5014452;28;19991;-81
2022/07/19 01:42:49;;;;;;;;;;;20.10;65.00;;;;;;5016047;28;19957;-81
2022/07/19 01:45:15;;;;;;;;;;;20.10;65.00;;;;;;5016211;28;19909;-81
2022/07/19 01:47:40;;;;;;;;;;;20.10;65.00;;;;;;5014656;28;19929;-81
2022/07/19 01:50:07;;;;;;;;;;;20.10;65.10;;;;;;5014788;28;19913;-81
2022/07/19 01:52:32;;;;;;;;;;;20.00;65.40;;;;;;5013837;28;19914;-81
2022/07/19 01:54:58;;;;;;;;;;;20.00;65.20;;;;;;5015608;28;20011;-80
2022/07/19 01:57:23;;;;;;;;;;;20.00;65.40;;;;;;5033074;28;19913;-81
2022/07/19 01:59:49;;;;;;;;;;;20.00;65.30;;;;;;5035176;28;19951;-81
2022/07/19 02:02:14;;;;;;;;;;;20.00;65.10;;;;;;5025339;28;20002;-81
2022/07/19 02:04:40;;;;;;;;;;;20.00;65.30;;;;;;5013184;28;19996;-80
2022/07/19 02:07:05;;;;;;;;;;;19.90;65.60;;;;;;5014521;28;19996;-81
2022/07/19 02:09:30;;;;;;;;;;;19.90;66.20;;;;;;5013826;28;19914;-81
2022/07/19 02:11:56;;;;;;;;;;;19.80;66.10;;;;;;5017661;28;19985;-81
2022/07/19 02:14:21;;;;;;;;;;;19.80;66.30;;;;;;5014924;28;19940;-81
2022/07/19 02:16:47;;;;;;;;;;;19.80;66.10;;;;;;5015882;28;20043;-81
2022/07/19 02:19:13;;;;;;;;;;;19.70;66.40;;;;;;5013740;28;19917;-80
2022/07/19 02:21:38;;;;;;;;;;;19.60;67.10;;;;;;5015299;28;20327;-81
2022/07/19 02:24:04;;;;;;;;;;;19.60;67.10;;;;;;5016157;28;19916;-81
2022/07/19 02:26:30;;;;;;;;;;;19.60;67.00;;;;;;5016191;28;19910;-81
2022/07/19 02:28:56;;;;;;;;;;;19.70;66.80;;;;;;5013759;28;20277;-82
2022/07/19 02:31:22;;;;;;;;;;;19.60;67.10;;;;;;5013575;28;19914;-81
2022/07/19 02:33:47;;;;;;;;;;;19.60;67.30;;;;;;5016588;28;19909;-81
2022/07/19 02:36:13;;;;;;;;;;;19.60;67.60;;;;;;5015612;28;19917;-81
2022/07/19 02:38:38;;;;;;;;;;;19.50;67.60;;;;;;5014627;28;19913;-81
2022/07/19 02:41:04;;;;;;;;;;;19.60;67.40;;;;;;5016970;28;19924;-82
2022/07/19 02:43:29;;;;;;;;;;;19.60;67.20;;;;;;5014052;28;19925;-81
2022/07/19 02:45:55;;;;;;;;;;;19.60;67.30;;;;;;5012966;28;19913;-81
2022/07/19 02:48:21;;;;;;;;;;;19.50;67.30;;;;;;5010563;28;19952;-81
2022/07/19 02:50:46;;;;;;;;;;;19.50;67.30;;;;;;5012980;28;19996;-81
2022/07/19 02:53:12;;;;;;;;;;;19.40;67.50;;;;;;5012871;28;19928;-81
2022/07/19 02:55:37;;;;;;;;;;;19.50;67.30;;;;;;5013986;28;19928;-81
2022/07/19 02:58:03;;;;;;;;;;;19.40;67.50;;;;;;5013560;28;19917;-81
2022/07/19 03:00:28;;;;;;;;;;;19.30;67.70;;;;;;5010372;28;20495;-81
2022/07/19 03:02:54;;;;;;;;;;;19.20;67.90;;;;;;5013071;28;19909;-81
2022/07/19 03:05:20;;;;;;;;;;;19.20;67.90;;;;;;5016889;28;19916;-81
2022/07/19 03:07:46;;;;;;;;;;;19.10;68.60;;;;;;5023838;28;19940;-81
2022/07/19 03:10:11;;;;;;;;;;;19.10;68.10;;;;;;5028197;28;19910;-80
2022/07/19 03:12:36;;;;;;;;;;;19.10;68.00;;;;;;5028178;28;19925;-81
2022/07/19 03:15:02;;;;;;;;;;;19.00;68.90;;;;;;5031203;28;19924;-81
2022/07/19 03:17:28;;;;;;;;;;;19.00;69.40;;;;;;5020184;28;19920;-81
2022/07/19 03:19:53;;;;;;;;;;;19.00;69.30;;;;;;5016761;28;19960;-81
2022/07/19 03:22:18;;;;;;;;;;;19.10;69.00;;;;;;5017835;28;20306;-81
2022/07/19 03:24:44;;;;;;;;;;;19.10;68.60;;;;;;5016656;28;19989;-81
2022/07/19 03:27:09;;;;;;;;;;;19.10;68.80;;;;;;5015021;28;20375;-81
2022/07/19 03:29:35;;;;;;;;;;;19.10;69.00;;;;;;5015289;28;19916;-81
2022/07/19 03:32:01;;;;;;;;;;;19.00;69.60;;;;;;5017629;28;19917;-81
2022/07/19 03:34:26;;;;;;;;;;;19.00;69.80;;;;;;5015836;28;19994;-81
2022/07/19 03:36:52;;;;;;;;;;;19.00;69.80;;;;;;5017429;28;20005;-81
2022/07/19 03:39:17;;;;;;;;;;;19.10;69.40;;;;;;5017217;28;20046;-81
2022/07/19 03:41:43;;;;;;;;;;;19.10;69.00;;;;;;5016547;28;20015;-80
2022/07/19 03:44:08;;;;;;;;;;;19.10;68.90;;;;;;5017229;28;19942;-81
2022/07/19 03:46:33;;;;;;;;;;;19.10;68.90;;;;;;5018696;28;20011;-81
2022/07/19 03:48:59;;;;;;;;;;;19.10;68.70;;;;;;5016392;28;19996;-81
2022/07/19 03:51:24;;;;;;;;;;;19.10;68.90;;;;;;5018369;28;19921;-81
2022/07/19 03:53:50;;;;;;;;;;;19.10;68.90;;;;;;5015363;28;20397;-81
2022/07/19 03:56:17;;;;;;;;;;;19.10;69.00;;;;;;5014059;28;19913;-81
2022/07/19 03:58:43;;;;;;;;;;;19.10;69.10;;;;;;5014458;28;19910;-81
2022/07/19 04:01:08;;;;;;;;;;;19.00;69.00;;;;;;5016092;28;19944;-81
2022/07/19 04:03:37;;;;;;;;;;;19.10;69.20;;;;;;5015951;28;20314;-81
2022/07/19 04:06:03;;;;;;;;;;;19.10;69.30;;;;;;5021705;28;20157;-80
2022/07/19 04:08:29;;;;;;;;;;;19.00;69.40;;;;;;5008707;28;19972;-80
2022/07/19 04:10:54;;;;;;;;;;;19.00;69.50;;;;;;5022472;28;19913;-80
2022/07/19 04:13:20;;;;;;;;;;;19.00;69.40;;;;;;5033373;28;19968;-81
2022/07/19 04:15:45;;;;;;;;;;;19.00;69.40;;;;;;5016098;28;19909;-81
2022/07/19 04:18:11;;;;;;;;;;;19.00;69.60;;;;;;5016301;28;19916;-81
2022/07/19 04:20:36;;;;;;;;;;;19.10;69.60;;;;;;5014997;28;19924;-81
2022/07/19 04:23:02;;;;;;;;;;;19.10;69.70;;;;;;5016824;28;19952;-81
2022/07/19 04:25:27;;;;;;;;;;;19.00;69.80;;;;;;5015947;28;20246;-81
2022/07/19 04:27:54;;;;;;;;;;;19.00;69.80;;;;;;5015563;28;20000;-81
2022/07/19 04:30:19;;;;;;;;;;;19.00;69.70;;;;;;5014203;28;20323;-81
2022/07/19 04:32:45;;;;;;;;;;;19.10;69.80;;;;;;5015351;28;19960;-81
2022/07/19 04:35:10;;;;;;;;;;;19.00;70.10;;;;;;5013902;28;19921;-81
2022/07/19 04:37:36;;;;;;;;;;;19.10;70.60;;;;;;5014565;28;19913;-81
2022/07/19 04:40:01;;;;;;;;;;;19.10;70.70;;;;;;5015889;28;19921;-80
2022/07/19 04:42:27;;;;;;;;;;;19.10;70.50;;;;;;5016174;28;20401;-81
2022/07/19 04:44:52;;;;;;;;;;;19.10;70.80;;;;;;5029555;28;20015;-81
2022/07/19 04:47:18;;;;;;;;;;;19.10;70.80;;;;;;5026404;28;20386;-81
2022/07/19 04:49:43;;;;;;;;;;;19.20;70.90;;;;;;5016298;28;19987;-81
2022/07/19 04:52:08;;;;;;;;;;;19.20;71.00;;;;;;5015505;28;19989;-81
2022/07/19 04:54:34;;;;;;;;;;;19.30;70.90;;;;;;5016295;28;19910;-81
2022/07/19 04:56:59;;;;;;;;;;;19.50;71.30;;;;;;5015824;28;19909;-81
2022/07/19 04:59:25;;;;;;;;;;;19.40;70.90;;;;;;5014982;28;20008;-81
2022/07/19 05:01:50;;;;;;;;;;;19.50;70.90;;;;;;5015398;28;19996;-81
2022/07/19 05:04:16;;;;;;;;;;;19.50;70.90;;;;;;5016439;28;20385;-81
2022/07/19 05:06:44;;;;;;;;;;;19.50;71.10;;;;;;5014852;28;19910;-81
2022/07/19 05:09:10;;;;;;;;;;;19.60;71.10;;;;;;5013699;28;19939;-81
2022/07/19 05:11:35;;;;;;;;;;;19.60;71.40;;;;;;5014076;28;19917;-81
2022/07/19 05:14:01;;;;;;;;;;;19.60;71.60;;;;;;5010129;28;20602;-81
2022/07/19 05:16:26;;;;;;;;;;;19.60;71.90;;;;;;5010151;28;19918;-81
2022/07/19 05:18:52;;;;;;;;;;;19.80;71.90;;;;;;5012295;28;20276;-81
2022/07/19 05:21:17;;;;;;;;;;;19.90;71.90;;;;;;5013436;28;19985;-81
2022/07/19 05:23:43;;;;;;;;;;;19.90;72.40;;;;;;4992064;23;1744071;-81
2022/07/19 05:26:08;;;;;;;;;;;20.00;72.30;;;;;;5038332;28;20347;-81
2022/07/19 05:28:33;;;;;;;;;;;20.20;71.20;;;;;;5054902;28;19908;-81
2022/07/19 05:30:59;;;;;;;;;;;20.20;71.00;;;;;;5054393;28;19913;-81
2022/07/19 05:33:26;;;;;;;;;;;20.30;71.20;;;;;;5043052;28;19913;-80
2022/07/19 05:35:51;;;;;;;;;;;20.40;71.10;;;;;;5055481;28;19916;-81
2022/07/19 05:38:17;;;;;;;;;;;20.40;71.00;;;;;;5054255;28;19909;-81
2022/07/19 05:40:42;;;;;;;;;;;20.50;70.70;;;;;;5055242;28;19913;-80
2022/07/19 05:43:08;;;;;;;;;;;20.50;69.70;;;;;;5036452;28;20008;-81
2022/07/19 05:45:33;;;;;;;;;;;20.60;68.80;;;;;;5053418;28;19913;-81
2022/07/19 05:47:59;;;;;;;;;;;20.70;68.10;;;;;;5054269;28;19972;-80
2022/07/19 05:50:24;;;;;;;;;;;20.70;67.90;;;;;;5052919;28;19916;-80
2022/07/19 05:52:50;;;;;;;;;;;20.80;66.50;;;;;;5034994;28;19913;-81
2022/07/19 05:55:15;;;;;;;;;;;20.90;66.60;;;;;;5035210;28;19931;-81
2022/07/19 05:57:40;;;;;;;;;;;21.00;66.50;;;;;;5053458;28;20012;-81
2022/07/19 06:00:06;;;;;;;;;;;21.10;65.80;;;;;;5052794;28;19958;-80
2022/07/19 06:02:32;;;;;;;;;;;21.20;64.40;;;;;;5044416;28;19966;-80
2022/07/19 06:04:57;;;;;;;;;;;21.20;62.20;;;;;;5053683;28;19913;-80
2022/07/19 06:07:23;;;;;;;;;;;21.30;62.00;;;;;;5051543;28;19912;-81
2022/07/19 06:09:48;;;;;;;;;;;21.40;62.00;;;;;;5058181;28;20039;-81
2022/07/19 06:12:13;;;;;;;;;;;21.50;61.90;;;;;;5054774;28;19913;-81
2022/07/19 06:14:39;;;;;;;;;;;21.60;61.80;;;;;;5053421;28;20395;-80
2022/07/19 06:17:04;;;;;;;;;;;21.60;61.20;;;;;;5053851;28;20300;-79
2022/07/19 06:19:30;;;;;;;;;;;21.80;61.30;;;;;;5043013;28;20318;-79
2022/07/19 06:21:55;;;;;;;;;;;21.90;61.00;;;;;;5059559;28;19909;-80
2022/07/19 06:24:21;;;;;;;;;;;21.90;61.10;;;;;;5039447;28;19916;-80
2022/07/19 06:26:46;;;;;;;;;;;22.00;61.30;;;;;;5055795;28;19920;-79
2022/07/19 06:29:12;;;;;;;;;;;22.10;61.00;;;;;;5057043;28;19913;-80
2022/07/19 06:31:37;;;;;;;;;;;22.20;60.70;;;;;;5036438;28;19925;-80
2022/07/19 06:34:02;;;;;;;;;;;22.30;60.50;;;;;;5059979;28;19948;-80
2022/07/19 06:36:28;;;;;;;;;;;22.30;60.30;;;;;;5061408;28;19917;-80
2022/07/19 06:38:53;;;;;;;;;;;22.40;60.40;;;;;;5053948;28;19913;-78
2022/07/19 06:41:19;;;;;;;;;;;22.50;60.70;;;;;;5031441;28;19935;-79
2022/07/19 06:43:45;;;;;;;;;;;22.60;60.30;;;;;;5033994;28;19913;-79
2022/07/19 06:46:10;;;;;;;;;;;22.70;59.50;;;;;;5056602;28;19912;-79
2022/07/19 06:48:36;;;;;;;;;;;22.80;59.40;;;;;;5054244;28;19917;-79
2022/07/19 06:51:01;;;;;;;;;;;22.90;59.10;;;;;;5055072;28;20229;-79
2022/07/19 06:53:27;;;;;;;;;;;23.10;59.30;;;;;;5052278;28;19916;-79
2022/07/19 06:55:52;;;;;;;;;;;23.10;59.30;;;;;;5055495;28;20378;-79
2022/07/19 06:58:18;;;;;;;;;;;23.20;58.80;;;;;;5040789;28;20004;-78
2022/07/19 07:00:44;;;;;;;;;;;23.30;58.20;;;;;;5053692;28;19966;-79
2022/07/19 07:03:09;;;;;;;;;;;23.40;58.30;;;;;;5034378;28;19980;-79
2022/07/19 07:05:35;;;;;;;;;;;23.60;57.80;;;;;;5051463;28;20371;-79
2022/07/19 07:08:00;;;;;;;;;;;23.80;58.20;;;;;;5042673;28;19908;-79
2022/07/19 07:10:26;;;;;;;;;;;23.90;58.40;;;;;;5038833;28;19908;-79
2022/07/19 07:12:51;;;;;;;;;;;24.00;57.80;;;;;;5033005;28;19921;-79
2022/07/19 07:15:17;;;;;;;;;;;24.00;57.50;;;;;;5034236;28;19966;-80
2022/07/19 07:17:42;;;;;;;;;;;24.10;55.80;;;;;;5043618;28;19909;-79
2022/07/19 07:20:08;;;;;;;;;;;24.30;55.80;;;;;;5033670;28;19924;-79
2022/07/19 07:22:34;;;;;;;;;;;24.30;55.20;;;;;;5027893;28;20368;-79
2022/07/19 07:25:00;;;;;;;;;;;24.40;55.50;;;;;;5015906;28;19921;-79
2022/07/19 07:27:25;;;;;;;;;;;24.50;55.50;;;;;;5051899;28;19913;-79
2022/07/19 07:29:51;;;;;;;;;;;24.50;56.40;;;;;;5031661;28;19913;-79
2022/07/19 07:32:17;;;;;;;;;;;24.60;55.40;;;;;;5047806;28;19916;-78
2022/07/19 07:34:42;;;;;;;;;;;24.70;55.00;;;;;;5032223;28;19951;-80
2022/07/19 07:37:08;;;;;;;;;;;24.70;54.00;;;;;;5049492;28;19931;-79
2022/07/19 07:39:33;;;;;;;;;;;24.90;53.60;;;;;;5049885;28;19917;-80
2022/07/19 07:41:59;;;;;;;;;;;25.10;52.20;;;;;;5032358;28;19916;-79
2022/07/19 07:44:24;;;;;;;;;;;25.20;51.80;;;;;;5048418;28;19912;-79
2022/07/19 07:46:49;;;;;;;;;;;25.30;51.30;;;;;;5049633;28;19913;-79
2022/07/19 07:49:15;;;;;;;;;;;25.50;52.70;;;;;;5050747;28;19962;-81
2022/07/19 07:51:40;;;;;;;;;;;25.60;51.60;;;;;;5026302;28;19912;-80
2022/07/19 07:54:06;;;;;;;;;;;25.60;51.00;;;;;;5034745;28;19940;-81
2022/07/19 07:56:31;;;;;;;;;;;25.70;49.10;;;;;;5053739;28;19909;-79
2022/07/19 07:58:57;;;;;;;;;;;25.80;50.00;;;;;;5053267;28;19991;-79
2022/07/19 08:01:22;;;;;;;;;;;25.90;49.40;;;;;;5053489;28;20066;-80
2022/07/19 08:03:48;;;;;;;;;;;26.00;47.20;;;;;;5035826;28;19916;-80
2022/07/19 08:06:15;;;;;;;;;;;26.10;48.40;;;;;;5035877;28;19920;-80
2022/07/19 08:08:41;;;;;;;;;;;26.20;47.20;;;;;;5053720;28;19952;-80
2022/07/19 08:11:06;;;;;;;;;;;26.40;47.30;;;;;;5054440;28;19916;-80
2022/07/19 08:13:32;;;;;;;;;;;26.50;48.10;;;;;;5035789;28;20003;-80
2022/07/19 08:15:57;;;;;;;;;;;26.60;49.20;;;;;;5052853;28;19966;-80
2022/07/19 08:18:23;;;;;;;;;;;26.70;47.50;;;;;;5054056;28;19908;-80
2022/07/19 08:20:48;;;;;;;;;;;26.80;47.30;;;;;;5053761;28;19982;-80
2022/07/19 08:23:14;;;;;;;;;;;26.90;48.30;;;;;;5053833;28;20445;-80
2022/07/19 08:25:39;;;;;;;;;;;27.00;47.90;;;;;;5036083;28;19913;-80
2022/07/19 08:28:05;;;;;;;;;;;27.20;45.90;;;;;;5035578;28;19987;-80
2022/07/19 08:30:30;;;;;;;;;;;27.30;44.30;;;;;;5056360;28;19909;-81
2022/07/19 08:32:56;;;;;;;;;;;27.50;43.30;;;;;;5039242;28;19958;-81
2022/07/19 08:35:21;;;;;;;;;;;27.70;39.70;;;;;;5039097;28;19919;-80
2022/07/19 08:37:47;;;;;;;;;;;28.00;40.10;;;;;;5056782;28;19916;-81
2022/07/19 08:40:12;;;;;;;;;;;28.10;39.80;;;;;;5056810;28;19913;-81
2022/07/19 08:42:38;;;;;;;;;;;28.10;40.70;;;;;;5055392;28;19912;-81
2022/07/19 08:45:05;;;;;;;;;;;28.30;39.60;;;;;;5037401;28;19908;-80
2022/07/19 08:47:31;;;;;;;;;;;28.50;39.00;;;;;;5042618;28;19909;-81
2022/07/19 08:49:58;;;;;;;;;;;28.70;38.10;;;;;;5057135;28;19931;-81
2022/07/19 08:52:24;;;;;;;;;;;28.90;37.70;;;;;;5037632;28;20352;-80
2022/07/19 08:54:49;;;;;;;;;;;29.00;36.70;;;;;;5051565;28;19916;-81
2022/07/19 08:59:59;;;;;;;;;;;29.00;36.20;;;;;;5055409;28;19947;-81
2022/07/19 09:02:24;;;;;;;;;;;29.20;35.40;;;;;;5054744;28;19909;-81
2022/07/19 09:05:05;;;;;;;;;;;29.10;36.70;;;;;;5054888;28;20287;-81
2022/07/19 09:07:30;;;;;;;;;;;29.20;36.00;;;;;;5038955;28;20299;-81
2022/07/19 09:10:13;;;;;;;;;;;29.30;36.00;;;;;;5034569;28;19913;-81
2022/07/19 09:12:56;;;;;;;;;;;29.40;35.70;;;;;;5034831;28;20012;-80
2022/07/19 09:15:34;;;;;;;;;;;29.40;35.30;;;;;;5034505;28;19909;-81
2022/07/19 09:18:07;;;;;;;;;;;29.60;34.70;;;;;;5052349;28;19909;-81
2022/07/19 09:20:33;;;;;;;;;;;29.70;33.10;;;;;;5035091;28;19967;-80
2022/07/19 09:23:00;;;;;;;;;;;29.70;34.30;;;;;;5053708;28;20299;-81
2022/07/19 09:25:34;;;;;;;;;;;29.80;34.20;;;;;;5036206;28;19912;-80
2022/07/19 09:28:00;;;;;;;;;;;29.90;32.90;;;;;;5035517;28;19913;-81
2022/07/19 09:30:40;;;;;;;;;;;29.80;34.20;;;;;;5035331;28;19959;-80
2022/07/19 09:33:24;;;;;;;;;;;29.90;34.40;;;;;;5053109;28;19916;-80
2022/07/19 09:35:51;;;;;;;;;;;30.00;33.80;;;;;;5053955;28;20064;-80
2022/07/19 09:38:36;;;;;;;;;;;29.90;34.30;;;;;;5052960;28;19916;-80
2022/07/19 09:41:08;;;;;;;;;;;29.90;34.50;;;;;;5035269;28;19913;-80
2022/07/19 09:43:58;;;;;;;;;;;30.10;31.10;;;;;;5057470;28;19909;-81
2022/07/19 09:46:32;;;;;;;;;;;30.40;31.50;;;;;;5062087;28;19909;-81
2022/07/19 09:49:02;;;;;;;;;;;30.60;30.80;;;;;;5052249;28;19919;-81
2022/07/19 09:51:27;;;;;;;;;;;30.90;29.90;;;;;;5053980;28;19989;-80
2022/07/19 09:53:53;;;;;;;;;;;31.00;29.80;;;;;;5053597;28;19912;-80
2022/07/19 09:56:19;;;;;;;;;;;31.10;29.60;;;;;;5053959;28;19916;-81
2022/07/19 09:58:44;;;;;;;;;;;31.20;30.40;;;;;;5055306;28;20372;-81
2022/07/19 10:01:10;;;;;;;;;;;31.10;28.90;;;;;;5054098;28;19966;-81
2022/07/19 10:03:36;;;;;;;;;;;31.30;29.60;;;;;;5055627;28;19909;-80
2022/07/19 10:06:01;;;;;;;;;;;31.10;30.20;;;;;;5042142;28;19916;-81
2022/07/19 10:08:27;;;;;;;;;;;31.40;30.20;;;;;;5056743;28;19909;-81
2022/07/19 10:10:53;;;;;;;;;;;31.30;30.60;;;;;;5037801;28;19913;-81
2022/07/19 10:13:19;;;;;;;;;;;31.30;29.90;;;;;;5054008;28;20374;-82
2022/07/19 10:15:47;;;;;;;;;;;31.40;29.10;;;;;;5057610;28;19909;-82
2022/07/19 10:18:14;;;;;;;;;;;31.40;28.60;;;;;;5046367;28;20341;-80
2022/07/19 10:20:43;;;;;;;;;;;31.30;29.30;;;;;;5070143;28;19912;-82
2022/07/19 10:23:09;;;;;;;;;;;31.40;29.70;;;;;;5037311;28;20403;-81
2022/07/19 10:25:38;;;;;;;;;;;31.40;30.50;;;;;;5055999;28;19963;-82
2022/07/19 10:28:03;;;;;;;;;;;31.20;30.90;;;;;;5055167;28;19962;-80
2022/07/19 10:30:38;;;;;;;;;;;31.30;30.70;;;;;;5054555;28;19999;-82
2022/07/19 10:33:23;;;;;;;;;;;31.20;31.00;;;;;;5054280;28;19909;-81
2022/07/19 10:35:49;;;;;;;;;;;31.30;29.30;;;;;;5055152;28;19913;-81
2022/07/19 10:38:14;;;;;;;;;;;31.30;29.50;;;;;;5035218;28;19916;-81
2022/07/19 10:40:43;;;;;;;;;;;31.20;30.70;;;;;;5051585;28;19920;-80
2022/07/19 10:43:10;;;;;;;;;;;31.40;29.40;;;;;;5054921;28;20439;-81
2022/07/19 10:45:36;;;;;;;;;;;31.50;30.70;;;;;;5054192;28;19955;-80
2022/07/19 10:48:04;;;;;;;;;;;31.50;31.20;;;;;;5053612;28;19909;-81
2022/07/19 10:50:41;;;;;;;;;;;31.50;29.50;;;;;;5062337;28;20003;-81
2022/07/19 10:53:07;;;;;;;;;;;31.50;29.00;;;;;;5049281;28;19897;-80
2022/07/19 10:55:32;;;;;;;;;;;31.30;29.70;;;;;;5050612;28;19920;-80
2022/07/19 10:57:57;;;;;;;;;;;31.40;29.60;;;;;;5015394;28;19970;-81
2022/07/19 11:00:28;;;;;;;;;;;31.60;29.70;;;;;;5034156;28;19913;-81
2022/07/19 11:03:13;;;;;;;;;;;31.70;29.60;;;;;;5017823;28;19909;-81
2022/07/19 11:05:49;;;;;;;;;;;31.60;28.90;;;;;;5003581;28;19917;-81
2022/07/19 11:08:15;;;;;;;;;;;31.80;27.90;;;;;;5016853;28;19909;-81
2022/07/19 11:10:40;;;;;;;;;;;31.60;29.80;;;;;;5016774;28;20009;-81
2022/07/19 11:13:05;;;;;;;;;;;31.60;30.00;;;;;;5031472;28;19916;-81
2022/07/19 11:15:31;;;;;;;;;;;31.60;30.20;;;;;;5036034;28;19909;-81
2022/07/19 11:18:06;;;;;;;;;;;31.80;29.10;;;;;;5053799;28;20011;-80
2022/07/19 11:20:33;;;;;;;;;;;31.90;28.10;;;;;;5063116;28;20015;-80
2022/07/19 11:22:59;;;;;;;;;;;31.90;29.70;;;;;;5033252;28;20397;-81
2022/07/19 11:25:25;;;;;;;;;;;31.90;30.30;;;;;;5073031;23;19948;-88
2022/07/19 11:27:51;;;;;;;;;;;31.90;27.50;;;;;;5058936;28;19928;-90
2022/07/19 11:30:17;;;;;;;;;;;32.00;28.60;;;;;;5060421;28;20180;-90
2022/07/19 11:32:42;;;;;;;;;;;32.10;26.70;;;;;;5046801;28;20376;-88
2022/07/19 11:35:09;;;;;;;;;;;32.20;26.50;;;;;;5038029;28;20366;-88
2022/07/19 11:37:35;;;;;;;;;;;32.20;27.70;;;;;;5023145;28;20344;-89
2022/07/19 11:40:02;;;;;;;;;;;32.30;27.50;;;;;;5017054;28;20442;-88
2022/07/19 11:42:32;;;;;;;;;;;32.40;27.30;;;;;;5018449;28;19913;-88
2022/07/19 11:44:58;;;;;;;;;;;32.40;28.00;;;;;;5017425;28;19913;-88
2022/07/19 11:47:23;;;;;;;;;;;32.50;26.40;;;;;;5018758;28;19909;-89
2022/07/19 11:49:49;;;;;;;;;;;32.50;26.60;;;;;;5021312;28;19909;-88
2022/07/19 11:52:14;;;;;;;;;;;32.50;26.20;;;;;;5016838;28;20332;-87
2022/07/19 11:54:40;;;;;;;;;;;32.50;26.60;;;;;;5010409;28;19913;-88
2022/07/19 11:57:21;;;;;;;;;;;32.50;26.50;;;;;;4996801;28;19913;-88
2022/07/19 11:59:47;;;;;;;;;;;32.50;26.80;;;;;;5009717;28;19909;-89
2022/07/19 12:02:12;;;;;;;;;;;32.60;26.20;;;;;;5019344;28;20360;-89
2022/07/19 12:04:38;;;;;;;;;;;32.70;26.30;;;;;;5016703;28;19917;-89
2022/07/19 12:07:03;;;;;;;;;;;32.80;26.20;;;;;;5013619;28;20292;-89
2022/07/19 12:09:32;;;;;;;;;;;33.10;25.30;;;;;;5013417;28;19917;-90
2022/07/19 12:12:06;;;;;;;;;;;33.20;25.60;;;;;;5013865;28;19925;-89
2022/07/19 12:14:35;;;;;;;;;;;32.90;26.20;;;;;;5014222;28;19917;-89
2022/07/19 12:20:11;;;;;;;;;;;32.70;26.50;;;;;;5012747;28;19956;-88
2022/07/19 12:22:38;;;;;;;;;;;32.70;26.60;;;;;;5014360;28;20384;-87
2022/07/19 12:25:05;;;;;;;;;;;32.70;26.00;;;;;;5013995;28;19968;-88
2022/07/19 12:27:31;;;;;;;;;;;32.80;25.90;;;;;;5015140;28;19909;-87
2022/07/19 12:29:58;;;;;;;;;;;32.80;26.70;;;;;;5012827;28;19910;-88
2022/07/19 12:32:31;;;;;;;;;;;32.80;26.00;;;;;;5013280;28;19909;-88
2022/07/19 12:34:58;;;;;;;;;;;32.80;26.00;;;;;;5012913;28;19910;-88
2022/07/19 12:37:27;;;;;;;;;;;32.90;25.70;;;;;;5009739;28;19963;-89
2022/07/19 12:40:00;;;;;;;;;;;33.00;25.90;;;;;;5016539;28;20004;-89
2022/07/19 12:42:34;;;;;;;;;;;33.10;26.30;;;;;;5016612;28;19909;-88
2022/07/19 12:45:00;;;;;;;;;;;33.20;25.50;;;;;;5016255;28;19958;-90
2022/07/19 12:47:31;;;;;;;;;;;33.30;25.50;;;;;;5019312;28;19910;-89
2022/07/19 12:50:07;;;;;;;;;;;33.40;24.90;;;;;;5036953;28;19901;-90
2022/07/19 12:52:33;;;;;;;;;;;33.60;23.60;;;;;;5032264;28;19909;-89
2022/07/19 12:54:58;;;;;;;;;;;33.60;25.20;;;;;;5034029;28;20376;-89
2022/07/19 12:57:24;;;;;;;;;;;33.70;24.40;;;;;;5028268;28;19909;-88
2022/07/19 12:59:49;;;;;;;;;;;33.90;24.10;;;;;;5004621;28;19972;-87
2022/07/19 13:02:15;;;;;;;;;;;33.80;22.90;;;;;;4999551;28;19937;-87
2022/07/19 13:04:42;;;;;;;;;;;33.70;23.80;;;;;;4996548;28;20000;-87
2022/07/19 13:07:19;;;;;;;;;;;33.60;24.30;;;;;;4995910;28;20288;-88
2022/07/19 13:09:44;;;;;;;;;;;33.40;25.00;;;;;;4995982;28;19909;-88
2022/07/19 13:12:10;;;;;;;;;;;33.40;24.70;;;;;;5015239;28;19973;-88
2022/07/19 13:14:36;;;;;;;;;;;33.20;24.20;;;;;;5019065;28;19924;-89
2022/07/19 13:17:03;;;;;;;;;;;33.30;24.50;;;;;;5030206;28;19944;-89
2022/07/19 13:19:28;;;;;;;;;;;33.60;23.90;;;;;;5015599;28;19909;-88
2022/07/19 13:21:54;;;;;;;;;;;33.70;23.50;;;;;;5015232;28;19925;-88
2022/07/19 13:24:19;;;;;;;;;;;33.70;24.60;;;;;;5035411;22;21017;-82
2022/07/19 13:26:45;;;;;;;;;;;34.10;22.70;;;;;;5056253;28;19921;-81
2022/07/19 13:29:10;;;;;;;;;;;34.10;23.50;;;;;;5037842;28;20050;-81
2022/07/19 13:31:36;;;;;;;;;;;34.10;23.60;;;;;;5036608;28;19934;-81
2022/07/19 13:34:02;;;;;;;;;;;34.00;22.90;;;;;;5053956;28;19908;-81
2022/07/19 13:36:27;;;;;;;;;;;34.10;23.00;;;;;;5053276;28;20144;-82
2022/07/19 13:38:53;;;;;;;;;;;34.30;21.90;;;;;;5036737;28;19909;-81
2022/07/19 13:41:18;;;;;;;;;;;34.60;21.00;;;;;;5036031;28;19923;-81
2022/07/19 13:43:44;;;;;;;;;;;34.60;21.20;;;;;;5036346;28;19915;-81
2022/07/19 13:46:11;;;;;;;;;;;34.70;22.40;;;;;;5036006;28;19909;-81
2022/07/19 13:48:37;;;;;;;;;;;34.40;22.40;;;;;;5053820;28;19916;-81
2022/07/19 13:51:02;;;;;;;;;;;34.30;22.90;;;;;;5053765;28;19987;-81
2022/07/19 13:53:28;;;;;;;;;;;34.10;22.60;;;;;;5041354;28;19920;-82
2022/07/19 13:55:53;;;;;;;;;;;34.10;23.30;;;;;;5035138;28;19916;-82
2022/07/19 13:58:19;;;;;;;;;;;34.20;22.30;;;;;;5017033;28;19909;-82
2022/07/19 14:00:46;;;;;;;;;;;34.30;21.60;;;;;;5016023;28;19913;-82
2022/07/19 14:03:13;;;;;;;;;;;34.30;22.20;;;;;;5034192;28;19917;-83
2022/07/19 14:05:38;;;;;;;;;;;34.50;21.40;;;;;;5016186;28;19913;-83
2022/07/19 14:08:04;;;;;;;;;;;34.60;21.30;;;;;;5015420;28;20378;-82
2022/07/19 14:10:29;;;;;;;;;;;34.40;21.70;;;;;;5045972;28;20358;-81
2022/07/19 14:12:55;;;;;;;;;;;34.40;22.90;;;;;;5053910;28;19917;-82
2022/07/19 14:15:20;;;;;;;;;;;34.40;22.30;;;;;;5054265;28;19999;-82
2022/07/19 14:17:46;;;;;;;;;;;34.20;22.50;;;;;;5054443;28;20400;-82